sensor_id;sensor_type;location;lat;lon;timestamp;temperature;humidity
50560;DHT22;36510;52.610;13.468;2022-08-02T00:03:43;20.50;42.10
50560;DHT22;36510;52.610;13.468;2022-08-02T00:08:34;20.10;43.20
50560;DHT22;36510;52.610;13.468;2022-08-02T00:13:24;20.20;43.20
50560;DHT22;36510;52.610;13.468;2022-08-02T00:18:15;20.20;42.60
50560;DHT22;36510;52.610;13.468;2022-08-02T00:23:05;20.20;42.40
50560;DHT22;36510;52.610;13.468;2022-08-02T00:27:56;20.10;42.80
50560;DHT22;36510;52.610;13.468;2022-08-02T00:32:46;19.90;43.90
50560;DHT22;36510;52.610;13.468;2022-08-02T00:37:38;19.90;44.20
50560;DHT22;36510;52.610;13.468;2022-08-02T00:42:29;19.90;44.60
50560;DHT22;36510;52.610;13.468;2022-08-02T00:47:19;20.00;44.40
50560;DHT22;36510;52.610;13.468;2022-08-02T00:52:10;20.10;44.10
50560;DHT22;36510;52.610;13.468;2022-08-02T00:57:00;20.20;43.90
50560;DHT22;36510;52.610;13.468;2022-08-02T01:01:51;20.20;43.80
50560;DHT22;36510;52.610;13.468;2022-08-02T01:06:41;20.20;44.00
50560;DHT22;36510;52.610;13.468;2022-08-02T01:11:33;20.10;44.30
50560;DHT22;36510;52.610;13.468;2022-08-02T01:16:27;20.20;44.30
50560;DHT22;36510;52.610;13.468;2022-08-02T01:36:54;20.10;44.10
50560;DHT22;36510;52.610;13.468;2022-08-02T01:41:47;20.20;44.20
50560;DHT22;36510;52.610;13.468;2022-08-02T01:46:40;20.10;44.10
50560;DHT22;36510;52.610;13.468;2022-08-02T01:51:32;20.10;44.10
50560;DHT22;36510;52.610;13.468;2022-08-02T01:56:43;20.20;44.10
50560;DHT22;36510;52.610;13.468;2022-08-02T02:01:35;20.20;44.10
50560;DHT22;36510;52.610;13.468;2022-08-02T02:06:27;20.20;44.10
50560;DHT22;36510;52.610;13.468;2022-08-02T02:11:20;20.10;43.90
50560;DHT22;36510;52.610;13.468;2022-08-02T02:16:11;20.00;44.30
50560;DHT22;36510;52.610;13.468;2022-08-02T02:21:03;20.10;44.40
50560;DHT22;36510;52.610;13.468;2022-08-02T02:25:54;20.10;44.50
50560;DHT22;36510;52.610;13.468;2022-08-02T02:30:48;20.10;44.60
50560;DHT22;36510;52.610;13.468;2022-08-02T02:35:40;20.10;44.70
50560;DHT22;36510;52.610;13.468;2022-08-02T02:40:32;20.00;45.10
50560;DHT22;36510;52.610;13.468;2022-08-02T02:45:23;20.10;45.00
50560;DHT22;36510;52.610;13.468;2022-08-02T02:50:16;20.10;45.10
50560;DHT22;36510;52.610;13.468;2022-08-02T02:55:07;20.10;44.60
50560;DHT22;36510;52.610;13.468;2022-08-02T02:59:59;20.10;44.90
50560;DHT22;36510;52.610;13.468;2022-08-02T03:04:51;20.10;44.40
50560;DHT22;36510;52.610;13.468;2022-08-02T03:09:42;20.10;44.40
50560;DHT22;36510;52.610;13.468;2022-08-02T03:14:33;20.10;44.30
50560;DHT22;36510;52.610;13.468;2022-08-02T03:19:24;20.00;44.30
50560;DHT22;36510;52.610;13.468;2022-08-02T03:24:15;20.00;44.30
50560;DHT22;36510;52.610;13.468;2022-08-02T03:29:06;19.80;45.20
50560;DHT22;36510;52.610;13.468;2022-08-02T03:33:58;19.80;45.10
50560;DHT22;36510;52.610;13.468;2022-08-02T03:38:50;19.70;44.90
50560;DHT22;36510;52.610;13.468;2022-08-02T03:43:41;19.70;44.70
50560;DHT22;36510;52.610;13.468;2022-08-02T03:48:34;19.60;45.30
50560;DHT22;36510;52.610;13.468;2022-08-02T03:53:25;19.60;45.20
50560;DHT22;36510;52.610;13.468;2022-08-02T03:58:20;19.60;44.80
50560;DHT22;36510;52.610;13.468;2022-08-02T04:03:11;19.60;44.90
50560;DHT22;36510;52.610;13.468;2022-08-02T04:08:02;19.70;44.50
50560;DHT22;36510;52.610;13.468;2022-08-02T04:12:53;19.50;45.30
50560;DHT22;36510;52.610;13.468;2022-08-02T04:17:51;19.40;46.00
50560;DHT22;36510;52.610;13.468;2022-08-02T04:27:34;19.30;46.40
50560;DHT22;36510;52.610;13.468;2022-08-02T04:32:26;19.30;46.90
50560;DHT22;36510;52.610;13.468;2022-08-02T04:37:17;19.50;46.10
50560;DHT22;36510;52.610;13.468;2022-08-02T04:42:08;19.60;45.40
50560;DHT22;36510;52.610;13.468;2022-08-02T04:46:59;19.70;44.80
50560;DHT22;36510;52.610;13.468;2022-08-02T04:51:51;19.70;44.40
50560;DHT22;36510;52.610;13.468;2022-08-02T04:56:42;19.80;44.10
50560;DHT22;36510;52.610;13.468;2022-08-02T05:01:33;19.80;44.00
50560;DHT22;36510;52.610;13.468;2022-08-02T05:06:26;19.90;44.10
50560;DHT22;36510;52.610;13.468;2022-08-02T05:11:17;19.90;43.40
50560;DHT22;36510;52.610;13.468;2022-08-02T05:16:07;19.90;43.30
50560;DHT22;36510;52.610;13.468;2022-08-02T05:20:58;20.00;42.70
50560;DHT22;36510;52.610;13.468;2022-08-02T05:25:48;20.10;41.90
50560;DHT22;36510;52.610;13.468;2022-08-02T05:30:39;20.20;40.40
50560;DHT22;36510;52.610;13.468;2022-08-02T05:35:30;20.20;41.30
50560;DHT22;36510;52.610;13.468;2022-08-02T05:40:20;20.10;42.30
50560;DHT22;36510;52.610;13.468;2022-08-02T05:45:11;20.10;41.60
50560;DHT22;36510;52.610;13.468;2022-08-02T05:50:03;20.20;40.70
50560;DHT22;36510;52.610;13.468;2022-08-02T05:55:02;20.50;38.40
50560;DHT22;36510;52.610;13.468;2022-08-02T06:00:06;20.60;35.60
50560;DHT22;36510;52.610;13.468;2022-08-02T06:09:51;20.80;33.30
50560;DHT22;36510;52.610;13.468;2022-08-02T06:14:42;21.00;30.20
50560;DHT22;36510;52.610;13.468;2022-08-02T06:19:32;21.10;29.80
50560;DHT22;36510;52.610;13.468;2022-08-02T06:24:24;21.20;29.30
50560;DHT22;36510;52.610;13.468;2022-08-02T06:29:19;21.50;28.40
50560;DHT22;36510;52.610;13.468;2022-08-02T06:34:10;21.80;26.00
50560;DHT22;36510;52.610;13.468;2022-08-02T06:39:11;22.10;25.00
50560;DHT22;36510;52.610;13.468;2022-08-02T06:44:04;22.10;26.20
50560;DHT22;36510;52.610;13.468;2022-08-02T06:48:55;22.10;26.20
50560;DHT22;36510;52.610;13.468;2022-08-02T06:53:46;22.20;25.60
50560;DHT22;36510;52.610;13.468;2022-08-02T06:58:37;22.20;25.70
50560;DHT22;36510;52.610;13.468;2022-08-02T07:03:27;22.70;23.90
50560;DHT22;36510;52.610;13.468;2022-08-02T07:08:19;23.10;22.40
50560;DHT22;36510;52.610;13.468;2022-08-02T07:13:09;23.30;22.50
50560;DHT22;36510;52.610;13.468;2022-08-02T07:18:00;23.20;22.10
50560;DHT22;36510;52.610;13.468;2022-08-02T07:22:50;23.10;22.10
50560;DHT22;36510;52.610;13.468;2022-08-02T07:27:41;23.10;22.40
50560;DHT22;36510;52.610;13.468;2022-08-02T07:32:31;23.20;22.10
50560;DHT22;36510;52.610;13.468;2022-08-02T07:37:25;23.30;21.70
50560;DHT22;36510;52.610;13.468;2022-08-02T07:42:16;23.40;22.00
50560;DHT22;36510;52.610;13.468;2022-08-02T07:47:06;23.60;21.10
50560;DHT22;36510;52.610;13.468;2022-08-02T07:51:57;23.90;20.20
50560;DHT22;36510;52.610;13.468;2022-08-02T07:56:47;24.20;19.90
50560;DHT22;36510;52.610;13.468;2022-08-02T08:01:38;25.00;17.70
50560;DHT22;36510;52.610;13.468;2022-08-02T08:06:29;25.20;17.10
50560;DHT22;36510;52.610;13.468;2022-08-02T08:11:20;25.70;16.70
50560;DHT22;36510;52.610;13.468;2022-08-02T08:16:10;28.70;11.40
50560;DHT22;36510;52.610;13.468;2022-08-02T08:21:01;32.60;4.90
50560;DHT22;36510;52.610;13.468;2022-08-02T08:25:51;35.10;1.00
50560;DHT22;36510;52.610;13.468;2022-08-02T08:30:42;34.60;1.00
50560;DHT22;36510;52.610;13.468;2022-08-02T08:35:33;32.50;2.70
50560;DHT22;36510;52.610;13.468;2022-08-02T08:40:24;30.30;6.50
50560;DHT22;36510;52.610;13.468;2022-08-02T08:45:15;28.80;7.90
50560;DHT22;36510;52.610;13.468;2022-08-02T08:50:17;27.90;10.80
50560;DHT22;36510;52.610;13.468;2022-08-02T08:55:09;27.10;11.10
50560;DHT22;36510;52.610;13.468;2022-08-02T09:00:03;26.60;12.50
50560;DHT22;36510;52.610;13.468;2022-08-02T09:04:54;26.50;12.30
50560;DHT22;36510;52.610;13.468;2022-08-02T09:09:44;26.30;13.10
50560;DHT22;36510;52.610;13.468;2022-08-02T09:14:35;26.10;13.80
50560;DHT22;36510;52.610;13.468;2022-08-02T09:19:26;26.00;14.30
50560;DHT22;36510;52.610;13.468;2022-08-02T09:24:21;26.10;14.40
50560;DHT22;36510;52.610;13.468;2022-08-02T09:29:12;26.20;14.40
50560;DHT22;36510;52.610;13.468;2022-08-02T09:34:02;26.20;14.30
50560;DHT22;36510;52.610;13.468;2022-08-02T09:39:01;26.20;14.10
50560;DHT22;36510;52.610;13.468;2022-08-02T09:43:54;26.30;14.10
50560;DHT22;36510;52.610;13.468;2022-08-02T09:48:54;26.50;13.80
50560;DHT22;36510;52.610;13.468;2022-08-02T09:53:47;26.70;13.50
50560;DHT22;36510;52.610;13.468;2022-08-02T09:58:38;27.00;13.50
50560;DHT22;36510;52.610;13.468;2022-08-02T10:03:29;27.20;13.50
50560;DHT22;36510;52.610;13.468;2022-08-02T10:08:20;27.80;12.30
50560;DHT22;36510;52.610;13.468;2022-08-02T10:13:11;28.40;10.30
50560;DHT22;36510;52.610;13.468;2022-08-02T10:18:01;28.90;9.90
50560;DHT22;36510;52.610;13.468;2022-08-02T10:22:52;29.30;8.50
50560;DHT22;36510;52.610;13.468;2022-08-02T10:27:43;29.10;8.70
50560;DHT22;36510;52.610;13.468;2022-08-02T10:32:41;29.00;8.80
50560;DHT22;36510;52.610;13.468;2022-08-02T10:37:34;28.80;8.70
50560;DHT22;36510;52.610;13.468;2022-08-02T10:42:49;28.90;8.30
50560;DHT22;36510;52.610;13.468;2022-08-02T10:47:56;29.30;8.30
50560;DHT22;36510;52.610;13.468;2022-08-02T10:52:46;29.40;7.70
50560;DHT22;36510;52.610;13.468;2022-08-02T10:57:37;29.50;8.00
50560;DHT22;36510;52.610;13.468;2022-08-02T11:02:36;29.90;6.70
50560;DHT22;36510;52.610;13.468;2022-08-02T11:07:34;29.80;6.40
50560;DHT22;36510;52.610;13.468;2022-08-02T11:12:25;30.00;6.80
50560;DHT22;36510;52.610;13.468;2022-08-02T11:17:18;30.20;6.30
50560;DHT22;36510;52.610;13.468;2022-08-02T11:22:13;30.10;6.20
50560;DHT22;36510;52.610;13.468;2022-08-02T11:27:15;30.00;6.30
50560;DHT22;36510;52.610;13.468;2022-08-02T11:32:17;29.60;7.10
50560;DHT22;36510;52.610;13.468;2022-08-02T11:37:08;29.70;6.70
50560;DHT22;36510;52.610;13.468;2022-08-02T11:41:59;29.60;7.30
50560;DHT22;36510;52.610;13.468;2022-08-02T11:46:57;29.50;6.70
50560;DHT22;36510;52.610;13.468;2022-08-02T11:51:59;29.20;7.50
50560;DHT22;36510;52.610;13.468;2022-08-02T11:56:51;29.10;6.50
50560;DHT22;36510;52.610;13.468;2022-08-02T12:01:42;29.00;7.10
50560;DHT22;36510;52.610;13.468;2022-08-02T12:06:33;29.00;7.40
50560;DHT22;36510;52.610;13.468;2022-08-02T12:11:24;29.10;7.00
50560;DHT22;36510;52.610;13.468;2022-08-02T12:16:14;28.90;6.80
50560;DHT22;36510;52.610;13.468;2022-08-02T12:21:25;28.90;7.60
50560;DHT22;36510;52.610;13.468;2022-08-02T12:26:15;29.00;6.70
50560;DHT22;36510;52.610;13.468;2022-08-02T12:31:07;29.20;6.40
50560;DHT22;36510;52.610;13.468;2022-08-02T12:36:17;29.70;5.20
50560;DHT22;36510;52.610;13.468;2022-08-02T12:41:12;30.20;5.50
50560;DHT22;36510;52.610;13.468;2022-08-02T12:46:02;30.30;4.80
50560;DHT22;36510;52.610;13.468;2022-08-02T12:50:53;30.60;2.30
50560;DHT22;36510;52.610;13.468;2022-08-02T12:55:52;30.90;2.80
50560;DHT22;36510;52.610;13.468;2022-08-02T13:00:52;31.50;1.00
50560;DHT22;36510;52.610;13.468;2022-08-02T13:05:43;31.10;1.60
50560;DHT22;36510;52.610;13.468;2022-08-02T13:10:33;30.80;2.60
50560;DHT22;36510;52.610;13.468;2022-08-02T13:15:24;30.40;1.20
50560;DHT22;36510;52.610;13.468;2022-08-02T13:20:14;30.00;3.90
50560;DHT22;36510;52.610;13.468;2022-08-02T13:25:05;30.10;3.00
50560;DHT22;36510;52.610;13.468;2022-08-02T13:29:56;29.80;3.80
50560;DHT22;36510;52.610;13.468;2022-08-02T13:34:47;29.40;4.80
50560;DHT22;36510;52.610;13.468;2022-08-02T13:39:38;29.30;5.80
50560;DHT22;36510;52.610;13.468;2022-08-02T13:44:28;29.50;4.50
50560;DHT22;36510;52.610;13.468;2022-08-02T13:49:19;29.40;4.10
50560;DHT22;36510;52.610;13.468;2022-08-02T13:54:10;29.30;5.50
50560;DHT22;36510;52.610;13.468;2022-08-02T13:59:00;29.10;5.10
50560;DHT22;36510;52.610;13.468;2022-08-02T14:03:51;29.20;2.50
50560;DHT22;36510;52.610;13.468;2022-08-02T14:08:43;29.20;3.50
50560;DHT22;36510;52.610;13.468;2022-08-02T14:13:33;29.10;2.50
50560;DHT22;36510;52.610;13.468;2022-08-02T14:18:24;29.00;3.80
50560;DHT22;36510;52.610;13.468;2022-08-02T14:23:14;28.80;4.10
50560;DHT22;36510;52.610;13.468;2022-08-02T14:28:05;28.80;3.90
50560;DHT22;36510;52.610;13.468;2022-08-02T14:32:56;28.70;5.00
50560;DHT22;36510;52.610;13.468;2022-08-02T14:37:46;28.60;4.60
50560;DHT22;36510;52.610;13.468;2022-08-02T14:42:37;28.40;4.80
50560;DHT22;36510;52.610;13.468;2022-08-02T14:47:27;28.50;4.80
50560;DHT22;36510;52.610;13.468;2022-08-02T14:52:18;28.40;18.00
50560;DHT22;36510;52.610;13.468;2022-08-02T14:57:09;27.50;22.10
50560;DHT22;36510;52.610;13.468;2022-08-02T15:02:00;27.30;20.00
50560;DHT22;36510;52.610;13.468;2022-08-02T15:06:51;27.60;17.60
50560;DHT22;36510;52.610;13.468;2022-08-02T15:11:42;27.80;13.20
50560;DHT22;36510;52.610;13.468;2022-08-02T15:16:32;28.00;13.10
50560;DHT22;36510;52.610;13.468;2022-08-02T15:21:25;28.10;12.80
50560;DHT22;36510;52.610;13.468;2022-08-02T15:26:15;28.10;12.80
50560;DHT22;36510;52.610;13.468;2022-08-02T15:31:05;28.20;11.20
50560;DHT22;36510;52.610;13.468;2022-08-02T15:35:56;28.20;12.50
50560;DHT22;36510;52.610;13.468;2022-08-02T15:40:46;28.20;11.80
50560;DHT22;36510;52.610;13.468;2022-08-02T15:45:37;28.10;14.50
50560;DHT22;36510;52.610;13.468;2022-08-02T15:50:29;28.10;13.50
50560;DHT22;36510;52.610;13.468;2022-08-02T15:55:20;28.10;10.40
50560;DHT22;36510;52.610;13.468;2022-08-02T16:00:11;28.10;13.10
50560;DHT22;36510;52.610;13.468;2022-08-02T16:05:01;28.10;13.40
50560;DHT22;36510;52.610;13.468;2022-08-02T16:09:52;28.00;14.80
50560;DHT22;36510;52.610;13.468;2022-08-02T16:14:42;28.00;14.80
50560;DHT22;36510;52.610;13.468;2022-08-02T16:19:33;27.90;14.10
50560;DHT22;36510;52.610;13.468;2022-08-02T16:24:23;27.90;14.00
50560;DHT22;36510;52.610;13.468;2022-08-02T16:29:15;27.90;14.80
50560;DHT22;36510;52.610;13.468;2022-08-02T16:34:07;27.80;15.30
50560;DHT22;36510;52.610;13.468;2022-08-02T16:38:57;27.80;15.10
50560;DHT22;36510;52.610;13.468;2022-08-02T16:43:48;27.70;15.10
50560;DHT22;36510;52.610;13.468;2022-08-02T16:48:39;27.70;14.10
50560;DHT22;36510;52.610;13.468;2022-08-02T16:53:30;27.70;15.30
50560;DHT22;36510;52.610;13.468;2022-08-02T16:58:20;27.60;15.50
50560;DHT22;36510;52.610;13.468;2022-08-02T17:03:11;27.60;14.00
50560;DHT22;36510;52.610;13.468;2022-08-02T17:08:02;27.60;16.50
50560;DHT22;36510;52.610;13.468;2022-08-02T17:12:53;27.60;16.20
50560;DHT22;36510;52.610;13.468;2022-08-02T17:17:44;27.60;14.30
50560;DHT22;36510;52.610;13.468;2022-08-02T17:22:34;27.60;15.80
50560;DHT22;36510;52.610;13.468;2022-08-02T17:27:25;27.50;13.90
50560;DHT22;36510;52.610;13.468;2022-08-02T17:32:15;27.50;15.30
50560;DHT22;36510;52.610;13.468;2022-08-02T17:37:06;27.40;15.40
50560;DHT22;36510;52.610;13.468;2022-08-02T17:41:56;27.30;15.60
50560;DHT22;36510;52.610;13.468;2022-08-02T17:46:47;27.20;15.70
50560;DHT22;36510;52.610;13.468;2022-08-02T17:51:37;27.10;15.00
50560;DHT22;36510;52.610;13.468;2022-08-02T17:56:28;27.00;15.60
50560;DHT22;36510;52.610;13.468;2022-08-02T18:01:18;27.00;15.30
50560;DHT22;36510;52.610;13.468;2022-08-02T18:06:09;26.90;15.10
50560;DHT22;36510;52.610;13.468;2022-08-02T18:10:59;26.80;15.30
50560;DHT22;36510;52.610;13.468;2022-08-02T18:15:50;26.80;16.50
50560;DHT22;36510;52.610;13.468;2022-08-02T18:20:41;26.70;16.70
50560;DHT22;36510;52.610;13.468;2022-08-02T18:25:32;26.70;17.60
50560;DHT22;36510;52.610;13.468;2022-08-02T18:30:23;26.60;18.00
50560;DHT22;36510;52.610;13.468;2022-08-02T18:35:14;26.60;18.70
50560;DHT22;36510;52.610;13.468;2022-08-02T18:40:05;26.50;18.40
50560;DHT22;36510;52.610;13.468;2022-08-02T18:44:55;26.40;19.20
50560;DHT22;36510;52.610;13.468;2022-08-02T18:49:46;26.30;20.10
50560;DHT22;36510;52.610;13.468;2022-08-02T18:54:36;26.20;20.50
50560;DHT22;36510;52.610;13.468;2022-08-02T18:59:26;26.10;21.20
50560;DHT22;36510;52.610;13.468;2022-08-02T19:04:17;26.00;20.70
50560;DHT22;36510;52.610;13.468;2022-08-02T19:09:08;25.80;21.80
50560;DHT22;36510;52.610;13.468;2022-08-02T19:14:00;25.80;21.80
50560;DHT22;36510;52.610;13.468;2022-08-02T19:18:50;25.70;21.90
50560;DHT22;36510;52.610;13.468;2022-08-02T19:23:41;25.60;21.30
50560;DHT22;36510;52.610;13.468;2022-08-02T19:28:31;25.50;21.90
50560;DHT22;36510;52.610;13.468;2022-08-02T19:33:22;25.40;22.40
50560;DHT22;36510;52.610;13.468;2022-08-02T19:38:13;25.20;22.70
50560;DHT22;36510;52.610;13.468;2022-08-02T19:43:04;25.20;23.60
50560;DHT22;36510;52.610;13.468;2022-08-02T19:47:54;25.10;22.40
50560;DHT22;36510;52.610;13.468;2022-08-02T19:52:46;25.00;22.10
50560;DHT22;36510;52.610;13.468;2022-08-02T19:57:36;24.90;22.90
50560;DHT22;36510;52.610;13.468;2022-08-02T20:02:27;24.80;22.50
50560;DHT22;36510;52.610;13.468;2022-08-02T20:07:17;24.60;23.00
50560;DHT22;36510;52.610;13.468;2022-08-02T20:12:08;24.60;22.30
50560;DHT22;36510;52.610;13.468;2022-08-02T20:16:59;24.60;22.40
50560;DHT22;36510;52.610;13.468;2022-08-02T20:21:50;24.40;22.30
50560;DHT22;36510;52.610;13.468;2022-08-02T20:26:40;24.30;22.90
50560;DHT22;36510;52.610;13.468;2022-08-02T20:31:31;24.30;23.10
50560;DHT22;36510;52.610;13.468;2022-08-02T20:36:22;24.30;23.10
50560;DHT22;36510;52.610;13.468;2022-08-02T20:41:12;24.20;23.10
50560;DHT22;36510;52.610;13.468;2022-08-02T20:46:03;24.10;23.00
50560;DHT22;36510;52.610;13.468;2022-08-02T20:50:53;24.10;22.80
50560;DHT22;36510;52.610;13.468;2022-08-02T20:55:49;24.00;22.90
50560;DHT22;36510;52.610;13.468;2022-08-02T21:00:40;23.90;22.70
50560;DHT22;36510;52.610;13.468;2022-08-02T21:05:32;23.80;22.80
50560;DHT22;36510;52.610;13.468;2022-08-02T21:10:22;23.80;22.80
50560;DHT22;36510;52.610;13.468;2022-08-02T21:15:13;23.70;23.50
50560;DHT22;36510;52.610;13.468;2022-08-02T21:20:04;23.60;22.70
50560;DHT22;36510;52.610;13.468;2022-08-02T21:24:54;23.60;23.30
50560;DHT22;36510;52.610;13.468;2022-08-02T21:29:45;23.50;23.80
50560;DHT22;36510;52.610;13.468;2022-08-02T21:34:35;23.50;24.20
50560;DHT22;36510;52.610;13.468;2022-08-02T21:39:26;23.30;24.10
50560;DHT22;36510;52.610;13.468;2022-08-02T21:44:18;23.20;24.50
50560;DHT22;36510;52.610;13.468;2022-08-02T21:49:09;23.10;24.70
50560;DHT22;36510;52.610;13.468;2022-08-02T21:54:00;23.10;24.60
50560;DHT22;36510;52.610;13.468;2022-08-02T21:58:50;23.10;25.30
50560;DHT22;36510;52.610;13.468;2022-08-02T22:03:41;23.10;25.00
50560;DHT22;36510;52.610;13.468;2022-08-02T22:08:32;23.00;24.70
50560;DHT22;36510;52.610;13.468;2022-08-02T22:13:23;22.90;24.80
50560;DHT22;36510;52.610;13.468;2022-08-02T22:18:13;22.90;25.10
50560;DHT22;36510;52.610;13.468;2022-08-02T22:23:04;23.00;25.10
50560;DHT22;36510;52.610;13.468;2022-08-02T22:27:56;22.90;25.00
50560;DHT22;36510;52.610;13.468;2022-08-02T22:32:46;23.00;25.10
50560;DHT22;36510;52.610;13.468;2022-08-02T22:37:55;22.90;24.80
50560;DHT22;36510;52.610;13.468;2022-08-02T22:42:46;22.90;25.10
50560;DHT22;36510;52.610;13.468;2022-08-02T22:47:36;22.80;25.00
50560;DHT22;36510;52.610;13.468;2022-08-02T22:52:27;22.80;25.60
50560;DHT22;36510;52.610;13.468;2022-08-02T22:57:18;22.80;25.20
50560;DHT22;36510;52.610;13.468;2022-08-02T23:02:09;22.80;24.30
50560;DHT22;36510;52.610;13.468;2022-08-02T23:06:59;22.70;24.50
50560;DHT22;36510;52.610;13.468;2022-08-02T23:11:50;22.70;25.30
50560;DHT22;36510;52.610;13.468;2022-08-02T23:16:40;22.70;25.20
50560;DHT22;36510;52.610;13.468;2022-08-02T23:21:49;22.70;25.30
50560;DHT22;36510;52.610;13.468;2022-08-02T23:26:40;22.70;25.50
50560;DHT22;36510;52.610;13.468;2022-08-02T23:31:33;22.60;25.60
50560;DHT22;36510;52.610;13.468;2022-08-02T23:36:24;22.60;25.70
50560;DHT22;36510;52.610;13.468;2022-08-02T23:41:14;22.70;26.00
50560;DHT22;36510;52.610;13.468;2022-08-02T23:46:05;22.60;26.40
50560;DHT22;36510;52.610;13.468;2022-08-02T23:50:55;22.60;26.70
50560;DHT22;36510;52.610;13.468;2022-08-02T23:55:47;22.60;26.80
